sensor_id;sensor_type;location;lat;lon;timestamp;pressure;altitude;pressure_sealevel;temperature;humidity
12468;BME280;57850;52.922;6.256;2024-03-08T00:01:14;102330.03;;;11.27;100.00
12468;BME280;57850;52.922;6.256;2024-03-08T00:03:41;102329.22;;;11.22;100.00
12468;BME280;57850;52.922;6.256;2024-03-08T00:06:09;102317.59;;;11.43;100.00
12468;BME280;57850;52.922;6.256;2024-03-08T00:08:36;102323.22;;;11.17;100.00
12468;BME280;57850;52.922;6.256;2024-03-08T00:11:03;102316.50;;;11.56;100.00
12468;BME280;57850;52.922;6.256;2024-03-08T00:13:30;102322.72;;;10.93;100.00
12468;BME280;57850;52.922;6.256;2024-03-08T00:15:56;102323.94;;;11.27;100.00
12468;BME280;57850;52.922;6.256;2024-03-08T00:18:24;102326.53;;;11.30;100.00
12468;BME280;57850;52.922;6.256;2024-03-08T00:20:50;102320.56;;;11.20;100.00
12468;BME280;57850;52.922;6.256;2024-03-08T00:23:19;102310.84;;;11.30;100.00
12468;BME280;57850;52.922;6.256;2024-03-08T00:25:45;102311.78;;;11.24;100.00
12468;BME280;57850;52.922;6.256;2024-03-08T00:28:12;102320.66;;;11.14;100.00
12468;BME280;57850;52.922;6.256;2024-03-08T00:30:40;102318.09;;;11.11;100.00
12468;BME280;57850;52.922;6.256;2024-03-08T00:33:08;102316.94;;;11.29;100.00
12468;BME280;57850;52.922;6.256;2024-03-08T00:35:34;102314.72;;;11.05;100.00
12468;BME280;57850;52.922;6.256;2024-03-08T00:38:01;102308.34;;;11.22;100.00
12468;BME280;57850;52.922;6.256;2024-03-08T00:40:29;102302.13;;;11.29;100.00
12468;BME280;57850;52.922;6.256;2024-03-08T00:42:56;102314.06;;;10.89;100.00
12468;BME280;57850;52.922;6.256;2024-03-08T00:45:22;102311.22;;;11.04;100.00
12468;BME280;57850;52.922;6.256;2024-03-08T00:47:49;102304.31;;;11.00;100.00
12468;BME280;57850;52.922;6.256;2024-03-08T00:50:15;102300.09;;;10.90;100.00
12468;BME280;57850;52.922;6.256;2024-03-08T00:52:43;102302.13;;;10.68;100.00
12468;BME280;57850;52.922;6.256;2024-03-08T00:55:10;102296.63;;;10.91;100.00
12468;BME280;57850;52.922;6.256;2024-03-08T00:57:38;102291.13;;;11.09;100.00
12468;BME280;57850;52.922;6.256;2024-03-08T01:00:06;102292.06;;;11.05;100.00
12468;BME280;57850;52.922;6.256;2024-03-08T01:02:37;102294.63;;;10.46;100.00
12468;BME280;57850;52.922;6.256;2024-03-08T01:05:04;102289.81;;;10.78;100.00
12468;BME280;57850;52.922;6.256;2024-03-08T01:07:32;102273.25;;;10.84;100.00
12468;BME280;57850;52.922;6.256;2024-03-08T01:09:59;102274.66;;;11.03;100.00
12468;BME280;57850;52.922;6.256;2024-03-08T01:12:26;102270.31;;;11.05;100.00
12468;BME280;57850;52.922;6.256;2024-03-08T01:14:54;102260.69;;;11.08;100.00
12468;BME280;57850;52.922;6.256;2024-03-08T01:17:21;102256.66;;;10.86;100.00
12468;BME280;57850;52.922;6.256;2024-03-08T01:19:48;102252.22;;;10.93;100.00
12468;BME280;57850;52.922;6.256;2024-03-08T01:22:14;102251.22;;;11.00;100.00
12468;BME280;57850;52.922;6.256;2024-03-08T01:24:41;102244.19;;;11.03;100.00
12468;BME280;57850;52.922;6.256;2024-03-08T01:27:08;102252.31;;;10.85;100.00
12468;BME280;57850;52.922;6.256;2024-03-08T01:29:34;102242.75;;;10.84;100.00
12468;BME280;57850;52.922;6.256;2024-03-08T01:32:03;102251.75;;;10.65;100.00
12468;BME280;57850;52.922;6.256;2024-03-08T01:34:31;102234.50;;;11.11;100.00
12468;BME280;57850;52.922;6.256;2024-03-08T01:36:58;102225.56;;;10.71;100.00
12468;BME280;57850;52.922;6.256;2024-03-08T01:39:26;102232.44;;;10.77;100.00
12468;BME280;57850;52.922;6.256;2024-03-08T01:41:53;102228.44;;;10.51;100.00
12468;BME280;57850;52.922;6.256;2024-03-08T01:44:20;102238.56;;;10.04;100.00
12468;BME280;57850;52.922;6.256;2024-03-08T01:46:47;102229.47;;;10.40;100.00
12468;BME280;57850;52.922;6.256;2024-03-08T01:49:20;102221.22;;;10.70;100.00
12468;BME280;57850;52.922;6.256;2024-03-08T01:51:48;102219.47;;;10.69;100.00
12468;BME280;57850;52.922;6.256;2024-03-08T01:54:16;102217.13;;;10.52;100.00
12468;BME280;57850;52.922;6.256;2024-03-08T01:56:45;102217.00;;;10.61;100.00
12468;BME280;57850;52.922;6.256;2024-03-08T01:59:13;102221.44;;;10.53;100.00
12468;BME280;57850;52.922;6.256;2024-03-08T02:01:40;102218.66;;;10.67;100.00
12468;BME280;57850;52.922;6.256;2024-03-08T02:04:07;102216.00;;;10.70;100.00
12468;BME280;57850;52.922;6.256;2024-03-08T02:06:35;102213.47;;;10.64;100.00
12468;BME280;57850;52.922;6.256;2024-03-08T02:09:03;102207.19;;;10.75;100.00
12468;BME280;57850;52.922;6.256;2024-03-08T02:11:31;102213.25;;;10.79;100.00
12468;BME280;57850;52.922;6.256;2024-03-08T02:13:58;102193.91;;;10.91;100.00
12468;BME280;57850;52.922;6.256;2024-03-08T02:16:25;102199.53;;;10.65;100.00
12468;BME280;57850;52.922;6.256;2024-03-08T02:18:51;102203.25;;;10.49;100.00
12468;BME280;57850;52.922;6.256;2024-03-08T02:21:20;102197.16;;;10.48;100.00
12468;BME280;57850;52.922;6.256;2024-03-08T02:23:47;102199.59;;;10.59;100.00
12468;BME280;57850;52.922;6.256;2024-03-08T02:26:13;102204.56;;;10.16;100.00
12468;BME280;57850;52.922;6.256;2024-03-08T02:28:40;102197.47;;;10.27;100.00
12468;BME280;57850;52.922;6.256;2024-03-08T02:31:08;102194.69;;;10.39;100.00
12468;BME280;57850;52.922;6.256;2024-03-08T02:33:35;102189.34;;;10.47;100.00
12468;BME280;57850;52.922;6.256;2024-03-08T02:36:01;102186.91;;;10.36;100.00
12468;BME280;57850;52.922;6.256;2024-03-08T02:38:29;102186.91;;;10.36;100.00
12468;BME280;57850;52.922;6.256;2024-03-08T02:40:57;102181.38;;;10.56;100.00
12468;BME280;57850;52.922;6.256;2024-03-08T02:43:23;102172.91;;;10.40;100.00
12468;BME280;57850;52.922;6.256;2024-03-08T02:45:51;102178.38;;;10.24;100.00
12468;BME280;57850;52.922;6.256;2024-03-08T02:48:18;102172.88;;;10.45;100.00
12468;BME280;57850;52.922;6.256;2024-03-08T02:50:46;102161.94;;;10.77;100.00
12468;BME280;57850;52.922;6.256;2024-03-08T02:53:13;102156.19;;;10.53;100.00
12468;BME280;57850;52.922;6.256;2024-03-08T02:55:41;102169.88;;;10.06;100.00
12468;BME280;57850;52.922;6.256;2024-03-08T02:58:08;102172.97;;;9.65;100.00
12468;BME280;57850;52.922;6.256;2024-03-08T03:00:36;102174.91;;;10.23;100.00
12468;BME280;57850;52.922;6.256;2024-03-08T03:03:04;102174.59;;;9.77;100.00
12468;BME280;57850;52.922;6.256;2024-03-08T03:05:32;102155.91;;;10.09;100.00
12468;BME280;57850;52.922;6.256;2024-03-08T03:07:59;102157.63;;;10.13;100.00
12468;BME280;57850;52.922;6.256;2024-03-08T03:10:26;102163.44;;;10.35;100.00
12468;BME280;57850;52.922;6.256;2024-03-08T03:12:54;102145.91;;;10.46;100.00
12468;BME280;57850;52.922;6.256;2024-03-08T03:15:20;102164.97;;;9.82;100.00
12468;BME280;57850;52.922;6.256;2024-03-08T03:17:48;102147.88;;;10.29;100.00
12468;BME280;57850;52.922;6.256;2024-03-08T03:20:16;102147.00;;;10.28;100.00
12468;BME280;57850;52.922;6.256;2024-03-08T03:22:51;102144.47;;;10.24;100.00
12468;BME280;57850;52.922;6.256;2024-03-08T03:25:18;102131.34;;;10.30;100.00
12468;BME280;57850;52.922;6.256;2024-03-08T03:27:50;102136.63;;;10.25;100.00
12468;BME280;57850;52.922;6.256;2024-03-08T03:30:18;102130.66;;;10.15;100.00
12468;BME280;57850;52.922;6.256;2024-03-08T03:32:48;102123.34;;;10.42;100.00
12468;BME280;57850;52.922;6.256;2024-03-08T03:35:16;102130.16;;;9.85;100.00
12468;BME280;57850;52.922;6.256;2024-03-08T03:37:43;102125.53;;;10.06;100.00
12468;BME280;57850;52.922;6.256;2024-03-08T03:40:16;102116.75;;;10.16;100.00
12468;BME280;57850;52.922;6.256;2024-03-08T03:42:44;102119.50;;;10.03;100.00
12468;BME280;57850;52.922;6.256;2024-03-08T03:45:11;102126.53;;;9.96;100.00
12468;BME280;57850;52.922;6.256;2024-03-08T03:47:42;102120.22;;;10.12;100.00
12468;BME280;57850;52.922;6.256;2024-03-08T03:50:09;102119.44;;;10.07;100.00
12468;BME280;57850;52.922;6.256;2024-03-08T03:52:36;102120.97;;;9.56;100.00
12468;BME280;57850;52.922;6.256;2024-03-08T03:55:03;102116.25;;;9.86;100.00
12468;BME280;57850;52.922;6.256;2024-03-08T03:57:30;102122.34;;;9.85;100.00
12468;BME280;57850;52.922;6.256;2024-03-08T03:59:57;102111.81;;;9.94;100.00
12468;BME280;57850;52.922;6.256;2024-03-08T04:02:24;102114.88;;;9.57;100.00
12468;BME280;57850;52.922;6.256;2024-03-08T04:04:53;102108.09;;;9.43;100.00
12468;BME280;57850;52.922;6.256;2024-03-08T04:07:20;102111.22;;;9.74;100.00
12468;BME280;57850;52.922;6.256;2024-03-08T04:09:47;102110.38;;;9.70;100.00
12468;BME280;57850;52.922;6.256;2024-03-08T04:12:13;102104.66;;;9.39;100.00
12468;BME280;57850;52.922;6.256;2024-03-08T04:14:42;102093.41;;;10.03;100.00
12468;BME280;57850;52.922;6.256;2024-03-08T04:17:08;102097.16;;;9.85;100.00
12468;BME280;57850;52.922;6.256;2024-03-08T04:19:38;102093.84;;;9.74;100.00
12468;BME280;57850;52.922;6.256;2024-03-08T04:22:06;102097.69;;;9.41;100.00
12468;BME280;57850;52.922;6.256;2024-03-08T04:24:33;102094.50;;;9.88;100.00
12468;BME280;57850;52.922;6.256;2024-03-08T04:27:00;102103.66;;;9.49;100.00
12468;BME280;57850;52.922;6.256;2024-03-08T04:29:27;102096.19;;;9.92;100.00
12468;BME280;57850;52.922;6.256;2024-03-08T04:31:53;102094.94;;;9.53;100.00
12468;BME280;57850;52.922;6.256;2024-03-08T04:34:20;102098.41;;;9.52;100.00
12468;BME280;57850;52.922;6.256;2024-03-08T04:36:47;102095.91;;;9.43;100.00
12468;BME280;57850;52.922;6.256;2024-03-08T04:39:15;102094.09;;;9.51;100.00
12468;BME280;57850;52.922;6.256;2024-03-08T04:41:44;102086.63;;;9.91;100.00
12468;BME280;57850;52.922;6.256;2024-03-08T04:44:11;102085.78;;;9.92;100.00
12468;BME280;57850;52.922;6.256;2024-03-08T04:46:38;102076.91;;;10.05;100.00
12468;BME280;57850;52.922;6.256;2024-03-08T04:49:05;102084.13;;;9.85;100.00
12468;BME280;57850;52.922;6.256;2024-03-08T04:51:32;102090.28;;;9.80;100.00
12468;BME280;57850;52.922;6.256;2024-03-08T04:53:59;102084.19;;;9.79;100.00
12468;BME280;57850;52.922;6.256;2024-03-08T04:56:27;102076.81;;;9.46;100.00
12468;BME280;57850;52.922;6.256;2024-03-08T04:58:54;102075.84;;;9.53;100.00
12468;BME280;57850;52.922;6.256;2024-03-08T05:01:20;102073.53;;;9.30;100.00
12468;BME280;57850;52.922;6.256;2024-03-08T05:03:47;102078.59;;;9.42;100.00
12468;BME280;57850;52.922;6.256;2024-03-08T05:06:15;102075.94;;;9.45;100.00
12468;BME280;57850;52.922;6.256;2024-03-08T05:08:42;102079.91;;;9.75;100.00
12468;BME280;57850;52.922;6.256;2024-03-08T05:11:09;102080.44;;;9.33;100.00
12468;BME280;57850;52.922;6.256;2024-03-08T05:13:37;102086.69;;;9.17;100.00
12468;BME280;57850;52.922;6.256;2024-03-08T05:16:04;102074.03;;;9.61;100.00
12468;BME280;57850;52.922;6.256;2024-03-08T05:18:33;102079.91;;;9.75;100.00
12468;BME280;57850;52.922;6.256;2024-03-08T05:21:01;102066.91;;;9.74;100.00
12468;BME280;57850;52.922;6.256;2024-03-08T05:23:29;102074.03;;;9.61;100.00
12468;BME280;57850;52.922;6.256;2024-03-08T05:25:55;102062.59;;;9.68;100.00
12468;BME280;57850;52.922;6.256;2024-03-08T05:28:22;102076.81;;;9.44;100.00
12468;BME280;57850;52.922;6.256;2024-03-08T05:30:50;102068.78;;;9.62;100.00
12468;BME280;57850;52.922;6.256;2024-03-08T05:33:17;102069.06;;;9.37;100.00
12468;BME280;57850;52.922;6.256;2024-03-08T05:35:44;102063.56;;;9.64;100.00
12468;BME280;57850;52.922;6.256;2024-03-08T05:38:11;102060.19;;;9.53;100.00
12468;BME280;57850;52.922;6.256;2024-03-08T05:40:38;102063.06;;;9.32;100.00
12468;BME280;57850;52.922;6.256;2024-03-08T05:43:07;102064.81;;;9.33;100.00
12468;BME280;57850;52.922;6.256;2024-03-08T05:45:33;102074.25;;;9.40;100.00
12468;BME280;57850;52.922;6.256;2024-03-08T05:48:01;102066.50;;;9.35;100.00
12468;BME280;57850;52.922;6.256;2024-03-08T05:50:28;102069.03;;;9.40;100.00
12468;BME280;57850;52.922;6.256;2024-03-08T05:52:55;102059.38;;;9.49;100.00
12468;BME280;57850;52.922;6.256;2024-03-08T05:55:22;102071.09;;;9.12;100.00
12468;BME280;57850;52.922;6.256;2024-03-08T05:57:50;102071.53;;;9.50;100.00
12468;BME280;57850;52.922;6.256;2024-03-08T06:00:18;102073.63;;;9.20;100.00
12468;BME280;57850;52.922;6.256;2024-03-08T06:02:44;102062.56;;;9.74;100.00
12468;BME280;57850;52.922;6.256;2024-03-08T06:05:12;102063.91;;;9.35;100.00
12468;BME280;57850;52.922;6.256;2024-03-08T06:07:39;102061.94;;;9.54;100.00
12468;BME280;57850;52.922;6.256;2024-03-08T06:10:08;102079.66;;;9.23;100.00
12468;BME280;57850;52.922;6.256;2024-03-08T06:12:37;102069.38;;;9.09;100.00
12468;BME280;57850;52.922;6.256;2024-03-08T06:15:07;102066.69;;;9.19;100.00
12468;BME280;57850;52.922;6.256;2024-03-08T06:17:35;102066.47;;;9.38;100.00
12468;BME280;57850;52.922;6.256;2024-03-08T06:20:01;102068.09;;;9.48;100.00
12468;BME280;57850;52.922;6.256;2024-03-08T06:22:30;102066.00;;;9.01;100.00
12468;BME280;57850;52.922;6.256;2024-03-08T06:24:57;102058.81;;;9.26;100.00
12468;BME280;57850;52.922;6.256;2024-03-08T06:27:23;102054.13;;;9.54;100.00
12468;BME280;57850;52.922;6.256;2024-03-08T06:29:50;102058.44;;;9.56;100.00
12468;BME280;57850;52.922;6.256;2024-03-08T06:32:17;102048.72;;;9.69;100.00
12468;BME280;57850;52.922;6.256;2024-03-08T06:34:44;102038.09;;;9.83;100.00
12468;BME280;57850;52.922;6.256;2024-03-08T06:37:11;102055.47;;;9.12;100.00
12468;BME280;57850;52.922;6.256;2024-03-08T06:39:41;102053.59;;;9.26;100.00
12468;BME280;57850;52.922;6.256;2024-03-08T06:42:07;102052.72;;;9.24;100.00
12468;BME280;57850;52.922;6.256;2024-03-08T06:44:35;102043.53;;;9.67;100.00
12468;BME280;57850;52.922;6.256;2024-03-08T06:47:03;102051.53;;;9.54;100.00
12468;BME280;57850;52.922;6.256;2024-03-08T06:49:31;102042.88;;;9.52;100.00
12468;BME280;57850;52.922;6.256;2024-03-08T06:51:58;102036.66;;;9.60;100.00
12468;BME280;57850;52.922;6.256;2024-03-08T06:54:24;102049.94;;;9.42;100.00
12468;BME280;57850;52.922;6.256;2024-03-08T06:56:52;102045.25;;;9.68;100.00
12468;BME280;57850;52.922;6.256;2024-03-08T06:59:19;102046.56;;;9.33;100.00
12468;BME280;57850;52.922;6.256;2024-03-08T07:01:47;102044.09;;;9.24;100.00
12468;BME280;57850;52.922;6.256;2024-03-08T07:04:14;102042.00;;;9.51;100.00
12468;BME280;57850;52.922;6.256;2024-03-08T07:06:40;102043.69;;;9.54;100.00
12468;BME280;57850;52.922;6.256;2024-03-08T07:09:07;102038.88;;;9.89;100.00
12468;BME280;57850;52.922;6.256;2024-03-08T07:11:33;102035.09;;;9.47;100.00
12468;BME280;57850;52.922;6.256;2024-03-08T07:14:01;102046.81;;;9.10;100.00
12468;BME280;57850;52.922;6.256;2024-03-08T07:16:31;102032.97;;;9.77;100.00
12468;BME280;57850;52.922;6.256;2024-03-08T07:18:59;102035.56;;;9.78;100.00
12468;BME280;57850;52.922;6.256;2024-03-08T07:21:25;102035.56;;;9.78;100.00
12468;BME280;57850;52.922;6.256;2024-03-08T07:23:52;102034.22;;;10.09;100.00
12468;BME280;57850;52.922;6.256;2024-03-08T07:26:38;102034.50;;;9.91;100.00
12468;BME280;57850;52.922;6.256;2024-03-08T07:29:06;102028.84;;;10.21;100.00
12468;BME280;57850;52.922;6.256;2024-03-08T07:31:34;102029.50;;;10.36;100.00
12468;BME280;57850;52.922;6.256;2024-03-08T07:34:09;102018.16;;;10.38;100.00
12468;BME280;57850;52.922;6.256;2024-03-08T07:36:36;102015.91;;;10.15;100.00
12468;BME280;57850;52.922;6.256;2024-03-08T07:39:03;101997.81;;;10.57;100.00
12468;BME280;57850;52.922;6.256;2024-03-08T07:41:31;101987.44;;;10.54;100.00
12468;BME280;57850;52.922;6.256;2024-03-08T07:43:59;101986.59;;;10.99;100.00
12468;BME280;57850;52.922;6.256;2024-03-08T07:46:27;101985.13;;;11.29;100.00
12468;BME280;57850;52.922;6.256;2024-03-08T07:48:54;101972.69;;;10.97;100.00
12468;BME280;57850;52.922;6.256;2024-03-08T07:51:21;101973.56;;;10.99;100.00
12468;BME280;57850;52.922;6.256;2024-03-08T07:53:47;101964.25;;;11.27;100.00
12468;BME280;57850;52.922;6.256;2024-03-08T07:56:14;101971.19;;;10.86;100.00
12468;BME280;57850;52.922;6.256;2024-03-08T07:58:43;101965.63;;;10.58;100.00
12468;BME280;57850;52.922;6.256;2024-03-08T08:01:16;101972.91;;;11.29;100.00
12468;BME280;57850;52.922;6.256;2024-03-08T08:03:44;101954.81;;;11.60;100.00
12468;BME280;57850;52.922;6.256;2024-03-08T08:06:11;101961.81;;;11.18;100.00
12468;BME280;57850;52.922;6.256;2024-03-08T08:08:41;101964.81;;;11.00;100.00
12468;BME280;57850;52.922;6.256;2024-03-08T08:11:07;101955.44;;;10.90;100.00
12468;BME280;57850;52.922;6.256;2024-03-08T08:13:35;101941.78;;;11.59;100.00
12468;BME280;57850;52.922;6.256;2024-03-08T08:16:02;101933.28;;;11.88;100.00
12468;BME280;57850;52.922;6.256;2024-03-08T08:18:29;101929.75;;;11.90;100.00
12468;BME280;57850;52.922;6.256;2024-03-08T08:20:57;101926.94;;;11.98;100.00
12468;BME280;57850;52.922;6.256;2024-03-08T08:23:25;101920.72;;;12.68;100.00
12468;BME280;57850;52.922;6.256;2024-03-08T08:25:52;101914.22;;;12.50;100.00
12468;BME280;57850;52.922;6.256;2024-03-08T08:28:18;101902.50;;;12.65;100.00
12468;BME280;57850;52.922;6.256;2024-03-08T08:30:46;101910.13;;;12.72;100.00
12468;BME280;57850;52.922;6.256;2024-03-08T08:33:14;101891.56;;;12.80;100.00
12468;BME280;57850;52.922;6.256;2024-03-08T08:35:41;101891.31;;;12.26;100.00
12468;BME280;57850;52.922;6.256;2024-03-08T08:38:09;101881.53;;;12.65;100.00
12468;BME280;57850;52.922;6.256;2024-03-08T08:40:36;101882.91;;;12.78;100.00
12468;BME280;57850;52.922;6.256;2024-03-08T08:43:03;101866.19;;;13.40;100.00
12468;BME280;57850;52.922;6.256;2024-03-08T08:45:31;101866.47;;;13.31;100.00
12468;BME280;57850;52.922;6.256;2024-03-08T08:47:58;101847.00;;;13.66;100.00
12468;BME280;57850;52.922;6.256;2024-03-08T08:50:26;101841.84;;;13.89;100.00
12468;BME280;57850;52.922;6.256;2024-03-08T08:52:53;101830.56;;;13.87;100.00
12468;BME280;57850;52.922;6.256;2024-03-08T08:55:22;101821.66;;;14.66;100.00
12468;BME280;57850;52.922;6.256;2024-03-08T08:57:50;101801.56;;;14.86;100.00
12468;BME280;57850;52.922;6.256;2024-03-08T09:00:18;101795.22;;;15.57;100.00
12468;BME280;57850;52.922;6.256;2024-03-08T09:02:46;101779.66;;;15.73;100.00
12468;BME280;57850;52.922;6.256;2024-03-08T09:05:13;101775.00;;;15.99;100.00
12468;BME280;57850;52.922;6.256;2024-03-08T09:07:42;101783.69;;;14.96;100.00
12468;BME280;57850;52.922;6.256;2024-03-08T09:10:10;101755.50;;;16.61;100.00
12468;BME280;57850;52.922;6.256;2024-03-08T09:12:39;101734.91;;;17.24;100.00
12468;BME280;57850;52.922;6.256;2024-03-08T09:15:06;101737.06;;;16.61;100.00
12468;BME280;57850;52.922;6.256;2024-03-08T09:17:36;101729.00;;;16.45;100.00
12468;BME280;57850;52.922;6.256;2024-03-08T09:20:06;101719.66;;;17.64;100.00
12468;BME280;57850;52.922;6.256;2024-03-08T09:22:34;101725.59;;;16.81;100.00
12468;BME280;57850;52.922;6.256;2024-03-08T09:25:00;101717.44;;;16.85;100.00
12468;BME280;57850;52.922;6.256;2024-03-08T09:27:27;101708.28;;;17.11;100.00
12468;BME280;57850;52.922;6.256;2024-03-08T09:29:56;101724.47;;;16.68;100.00
12468;BME280;57850;52.922;6.256;2024-03-08T09:32:23;101706.41;;;16.96;100.00
12468;BME280;57850;52.922;6.256;2024-03-08T09:34:49;101695.63;;;17.86;100.00
12468;BME280;57850;52.922;6.256;2024-03-08T09:37:16;101695.56;;;17.71;100.00
12468;BME280;57850;52.922;6.256;2024-03-08T09:39:44;101698.38;;;16.80;100.00
12468;BME280;57850;52.922;6.256;2024-03-08T09:42:11;101697.59;;;17.31;100.00
12468;BME280;57850;52.922;6.256;2024-03-08T09:44:44;101665.84;;;17.67;98.60
12468;BME280;57850;52.922;6.256;2024-03-08T09:47:13;101670.81;;;18.22;100.00
12468;BME280;57850;52.922;6.256;2024-03-08T09:49:40;101674.19;;;18.08;100.00
12468;BME280;57850;52.922;6.256;2024-03-08T09:52:08;101660.44;;;18.34;100.00
12468;BME280;57850;52.922;6.256;2024-03-08T09:54:36;101649.28;;;19.06;100.00
12468;BME280;57850;52.922;6.256;2024-03-08T09:57:04;101634.75;;;18.05;97.29
12468;BME280;57850;52.922;6.256;2024-03-08T09:59:31;101634.34;;;18.75;98.32
12468;BME280;57850;52.922;6.256;2024-03-08T10:02:15;101633.91;;;18.67;98.92
12468;BME280;57850;52.922;6.256;2024-03-08T10:04:43;101640.22;;;18.49;99.10
12468;BME280;57850;52.922;6.256;2024-03-08T10:07:11;101617.72;;;19.61;98.15
12468;BME280;57850;52.922;6.256;2024-03-08T10:09:38;101605.25;;;19.91;96.97
12468;BME280;57850;52.922;6.256;2024-03-08T10:12:05;101612.88;;;18.95;96.39
12468;BME280;57850;52.922;6.256;2024-03-08T10:14:33;101629.63;;;18.80;98.32
12468;BME280;57850;52.922;6.256;2024-03-08T10:16:59;101599.69;;;19.82;96.81
12468;BME280;57850;52.922;6.256;2024-03-08T10:19:27;101601.03;;;20.15;98.30
12468;BME280;57850;52.922;6.256;2024-03-08T10:21:55;101592.88;;;19.92;96.13
12468;BME280;57850;52.922;6.256;2024-03-08T10:24:24;101601.28;;;19.56;96.65
12468;BME280;57850;52.922;6.256;2024-03-08T10:26:52;101572.56;;;21.24;95.81
12468;BME280;57850;52.922;6.256;2024-03-08T10:29:19;101585.31;;;19.86;95.45
12468;BME280;57850;52.922;6.256;2024-03-08T10:31:46;101577.44;;;20.25;95.32
12468;BME280;57850;52.922;6.256;2024-03-08T10:34:13;101555.66;;;21.13;93.75
12468;BME280;57850;52.922;6.256;2024-03-08T10:36:41;101568.81;;;21.27;96.25
12468;BME280;57850;52.922;6.256;2024-03-08T10:39:17;101564.97;;;21.94;96.15
12468;BME280;57850;52.922;6.256;2024-03-08T10:41:52;101543.81;;;21.80;93.14
12468;BME280;57850;52.922;6.256;2024-03-08T10:44:28;101541.69;;;21.85;93.00
12468;BME280;57850;52.922;6.256;2024-03-08T10:47:01;101558.44;;;19.77;92.37
12468;BME280;57850;52.922;6.256;2024-03-08T10:49:31;101545.22;;;20.84;93.11
12468;BME280;57850;52.922;6.256;2024-03-08T10:52:03;101529.22;;;21.11;92.40
12468;BME280;57850;52.922;6.256;2024-03-08T10:54:31;101515.81;;;21.87;92.62
12468;BME280;57850;52.922;6.256;2024-03-08T10:56:59;101521.25;;;22.22;93.10
12468;BME280;57850;52.922;6.256;2024-03-08T10:59:29;101517.19;;;21.06;91.72
12468;BME280;57850;52.922;6.256;2024-03-08T11:01:57;101503.75;;;22.30;91.83
12468;BME280;57850;52.922;6.256;2024-03-08T11:04:24;101513.69;;;22.05;92.06
12468;BME280;57850;52.922;6.256;2024-03-08T11:06:51;101506.91;;;21.88;92.22
12468;BME280;57850;52.922;6.256;2024-03-08T11:09:30;101490.44;;;22.54;90.40
12468;BME280;57850;52.922;6.256;2024-03-08T11:12:22;101492.47;;;22.16;90.36
12468;BME280;57850;52.922;6.256;2024-03-08T11:14:52;101505.13;;;22.12;91.85
12468;BME280;57850;52.922;6.256;2024-03-08T11:17:39;101494.59;;;22.58;91.45
12468;BME280;57850;52.922;6.256;2024-03-08T11:20:09;101502.03;;;21.82;92.42
12468;BME280;57850;52.922;6.256;2024-03-08T11:22:41;101477.25;;;22.53;90.82
12468;BME280;57850;52.922;6.256;2024-03-08T11:25:31;101484.59;;;21.54;90.86
12468;BME280;57850;52.922;6.256;2024-03-08T11:28:11;101463.69;;;22.79;90.34
12468;BME280;57850;52.922;6.256;2024-03-08T11:30:46;101478.91;;;21.10;89.38
12468;BME280;57850;52.922;6.256;2024-03-08T11:33:14;101467.53;;;21.69;89.79
12468;BME280;57850;52.922;6.256;2024-03-08T11:35:42;101463.69;;;23.68;92.38
12468;BME280;57850;52.922;6.256;2024-03-08T11:38:11;101441.69;;;22.88;87.67
12468;BME280;57850;52.922;6.256;2024-03-08T11:40:40;101440.84;;;23.32;89.26
12468;BME280;57850;52.922;6.256;2024-03-08T11:43:07;101450.72;;;22.75;89.21
12468;BME280;57850;52.922;6.256;2024-03-08T11:45:34;101455.00;;;23.11;90.16
12468;BME280;57850;52.922;6.256;2024-03-08T11:48:04;101447.28;;;23.41;89.21
12468;BME280;57850;52.922;6.256;2024-03-08T11:50:31;101440.34;;;23.38;89.79
12468;BME280;57850;52.922;6.256;2024-03-08T11:53:03;101438.44;;;22.50;88.39
12468;BME280;57850;52.922;6.256;2024-03-08T11:55:31;101433.34;;;22.36;88.08
12468;BME280;57850;52.922;6.256;2024-03-08T11:58:05;101410.81;;;23.30;86.54
12468;BME280;57850;52.922;6.256;2024-03-08T12:00:33;101413.72;;;23.16;87.87
12468;BME280;57850;52.922;6.256;2024-03-08T12:03:05;101416.25;;;23.51;87.84
12468;BME280;57850;52.922;6.256;2024-03-08T12:05:33;101399.88;;;23.67;87.07
12468;BME280;57850;52.922;6.256;2024-03-08T12:08:00;101408.00;;;23.54;87.70
12468;BME280;57850;52.922;6.256;2024-03-08T12:10:27;101405.25;;;23.33;88.39
12468;BME280;57850;52.922;6.256;2024-03-08T12:12:55;101406.13;;;23.12;88.76
12468;BME280;57850;52.922;6.256;2024-03-08T12:15:26;101398.06;;;22.45;86.70
12468;BME280;57850;52.922;6.256;2024-03-08T12:17:54;101393.97;;;22.63;86.91
12468;BME280;57850;52.922;6.256;2024-03-08T12:20:24;101404.66;;;22.97;89.20
12468;BME280;57850;52.922;6.256;2024-03-08T12:22:52;101367.47;;;24.03;86.90
12468;BME280;57850;52.922;6.256;2024-03-08T12:25:21;101393.94;;;22.41;87.69
12468;BME280;57850;52.922;6.256;2024-03-08T12:27:48;101369.53;;;23.36;87.36
12468;BME280;57850;52.922;6.256;2024-03-08T12:30:19;101355.84;;;23.40;86.12
12468;BME280;57850;52.922;6.256;2024-03-08T12:32:52;101359.78;;;22.92;85.19
12468;BME280;57850;52.922;6.256;2024-03-08T12:35:20;101354.94;;;22.86;86.11
12468;BME280;57850;52.922;6.256;2024-03-08T12:37:49;101352.41;;;22.73;86.12
12468;BME280;57850;52.922;6.256;2024-03-08T12:40:17;101346.28;;;23.49;86.51
12468;BME280;57850;52.922;6.256;2024-03-08T12:42:44;101356.69;;;21.48;86.27
12468;BME280;57850;52.922;6.256;2024-03-08T12:45:13;101345.09;;;22.42;85.66
12468;BME280;57850;52.922;6.256;2024-03-08T12:47:40;101338.47;;;23.03;87.21
12468;BME280;57850;52.922;6.256;2024-03-08T12:50:10;101337.94;;;22.20;86.32